createdAt,value
2023-12-11T00:01:06.729Z,72.54
2023-12-11T00:06:16.720Z,73.07
2023-12-11T00:11:19.965Z,72.64
2023-12-11T00:16:23.398Z,72.47
2023-12-11T00:21:26.569Z,72.33
2023-12-11T00:26:29.838Z,72.21
2023-12-11T00:31:33.220Z,71.82
2023-12-11T00:36:36.436Z,71.73
2023-12-11T00:41:39.701Z,70.84
2023-12-11T00:46:42.990Z,70.84
2023-12-11T00:51:47.865Z,70.71
2023-12-11T00:56:51.250Z,71.00
2023-12-11T01:01:54.560Z,71.23
2023-12-11T01:06:57.785Z,71.71
2023-12-11T01:12:00.933Z,72.05
2023-12-11T01:17:36.259Z,72.01
2023-12-11T01:22:27.458Z,72.31
2023-12-11T01:27:31.159Z,72.69
2023-12-11T01:32:34.895Z,72.51
2023-12-11T01:37:38.150Z,72.96
2023-12-11T01:42:41.427Z,72.20
2023-12-11T01:47:45.182Z,72.25
2023-12-11T01:52:48.525Z,72.22
2023-12-11T01:57:52.687Z,72.16
2023-12-11T02:02:55.902Z,72.53
2023-12-11T02:08:00.221Z,72.85
2023-12-11T02:13:05.233Z,72.72
2023-12-11T02:18:10.472Z,72.96
2023-12-11T02:23:24.833Z,72.69
2023-12-11T02:28:28.161Z,72.25
2023-12-11T02:33:31.469Z,71.97
2023-12-11T02:38:34.925Z,71.50
2023-12-11T02:43:38.126Z,71.08
2023-12-11T02:48:41.444Z,70.79
2023-12-11T02:53:44.854Z,69.69
2023-12-11T02:58:48.040Z,69.28
2023-12-11T03:03:51.416Z,68.31
2023-12-11T03:08:54.614Z,68.57
2023-12-11T03:13:57.844Z,68.60
2023-12-11T03:19:01.183Z,68.57
2023-12-11T03:24:04.595Z,68.54
2023-12-11T03:29:07.659Z,67.19
2023-12-11T03:34:10.890Z,67.04
2023-12-11T03:39:14.037Z,66.86
2023-12-11T03:44:17.147Z,66.98
2023-12-11T03:49:21.620Z,67.34
2023-12-11T03:54:24.934Z,66.61
2023-12-11T03:59:28.097Z,66.60
2023-12-11T04:04:31.680Z,66.94
2023-12-11T04:09:34.960Z,65.96
2023-12-11T04:14:38.320Z,66.43
2023-12-11T04:19:41.550Z,65.82
2023-12-11T04:24:44.585Z,66.28
2023-12-11T04:29:47.911Z,65.91
2023-12-11T04:34:50.984Z,65.55
2023-12-11T04:39:54.035Z,64.79
2023-12-11T04:44:57.136Z,64.02
2023-12-11T04:50:00.572Z,63.57
2023-12-11T04:55:04.217Z,62.43
2023-12-11T05:00:08.687Z,61.80
2023-12-11T05:05:12.175Z,60.69
2023-12-11T05:10:15.577Z,60.16
2023-12-11T05:15:18.771Z,59.92
2023-12-11T05:20:22.057Z,58.47
2023-12-11T05:25:25.357Z,58.09
2023-12-11T05:30:28.574Z,58.28
2023-12-11T05:35:31.770Z,58.06
2023-12-11T05:40:35.016Z,57.30
2023-12-11T05:45:38.744Z,58.00
2023-12-11T05:50:43.008Z,57.32
2023-12-11T05:55:46.215Z,57.85
2023-12-11T06:00:49.448Z,58.94
2023-12-11T06:05:59.416Z,60.68
2023-12-11T06:11:02.717Z,61.76
2023-12-11T06:16:06.475Z,62.19
2023-12-11T06:21:19.056Z,60.77
2023-12-11T06:26:32.984Z,60.54
2023-12-11T06:31:36.407Z,60.50
2023-12-11T06:36:39.712Z,60.56
2023-12-11T06:41:43.140Z,60.08
2023-12-11T06:46:47.261Z,60.18
2023-12-11T06:51:51.340Z,59.63
2023-12-11T06:56:54.680Z,60.36
2023-12-11T07:02:05.880Z,60.28
2023-12-11T07:07:09.638Z,60.58
2023-12-11T07:12:12.985Z,60.59
2023-12-11T07:17:16.240Z,61.19
2023-12-11T07:22:19.495Z,61.21
2023-12-11T07:27:22.768Z,61.24
2023-12-11T07:32:26.470Z,60.70
2023-12-11T07:37:29.973Z,61.31
2023-12-11T07:42:33.401Z,61.19
2023-12-11T07:47:37.066Z,60.31
2023-12-11T07:52:40.539Z,61.06
2023-12-11T07:57:44.257Z,61.09
2023-12-11T08:02:47.555Z,61.51
2023-12-11T08:07:50.670Z,61.97
2023-12-11T08:12:54.220Z,62.19
2023-12-11T08:17:57.806Z,62.40
2023-12-11T08:23:01.111Z,62.33
2023-12-11T08:28:04.365Z,62.34
2023-12-11T08:33:07.563Z,62.81
2023-12-11T08:38:10.836Z,63.75
2023-12-11T08:43:14.290Z,63.58
2023-12-11T08:48:17.693Z,62.74
2023-12-11T08:53:21.747Z,62.33
2023-12-11T08:58:25.679Z,61.24
2023-12-11T09:03:28.994Z,61.70
2023-12-11T09:08:32.401Z,61.22
2023-12-11T09:13:36.235Z,60.85
2023-12-11T09:18:39.528Z,59.98
2023-12-11T09:23:42.918Z,60.99
2023-12-11T09:28:51.519Z,60.27
2023-12-11T09:33:55.811Z,60.39
2023-12-11T09:38:59.942Z,61.78
2023-12-11T09:44:04.695Z,61.50
2023-12-11T09:49:09.022Z,62.54
2023-12-11T09:54:12.869Z,62.58
2023-12-11T09:59:16.458Z,61.67
2023-12-11T10:04:19.644Z,62.06
2023-12-11T10:09:35.911Z,61.85
2023-12-11T10:14:39.221Z,61.14
2023-12-11T10:19:42.947Z,60.15
2023-12-11T10:24:46.490Z,60.67
2023-12-11T10:29:49.737Z,59.23
2023-12-11T10:34:53.281Z,59.69
2023-12-11T10:39:57.105Z,59.57
2023-12-11T10:45:00.905Z,61.51
2023-12-11T10:50:04.725Z,60.55
2023-12-11T10:55:08.385Z,60.23
2023-12-11T11:00:16.109Z,61.31
2023-12-11T11:05:22.051Z,60.91
2023-12-11T11:10:33.458Z,61.04
2023-12-11T11:15:36.742Z,61.52
2023-12-11T11:20:40.685Z,60.96
2023-12-11T11:25:52.307Z,60.83
2023-12-11T11:30:55.743Z,61.01
2023-12-11T11:36:00.495Z,61.62
2023-12-11T11:41:05.608Z,61.73
2023-12-11T11:46:08.838Z,61.90
2023-12-11T11:51:12.123Z,61.33
2023-12-11T11:56:15.393Z,61.74
2023-12-11T12:01:19.162Z,61.42
2023-12-11T12:06:22.542Z,61.91
2023-12-11T12:11:28.382Z,61.00
2023-12-11T12:16:32.420Z,61.47
2023-12-11T12:21:55.841Z,61.01
2023-12-11T12:27:03.032Z,60.54
2023-12-11T12:32:06.674Z,60.63
2023-12-11T12:37:09.994Z,60.25
2023-12-11T12:42:13.209Z,59.85
2023-12-11T12:47:16.355Z,60.62
2023-12-11T12:52:26.875Z,60.22
2023-12-11T12:57:36.176Z,60.01
2023-12-11T13:02:39.492Z,60.55
2023-12-11T13:07:44.557Z,61.06
2023-12-11T13:12:50.240Z,61.56
2023-12-11T13:22:06.221Z,61.16
2023-12-11T13:27:08.714Z,61.05
2023-12-11T13:32:15.863Z,62.30
2023-12-11T13:37:20.397Z,62.80
2023-12-11T13:42:22.344Z,63.13
2023-12-11T13:47:24.237Z,63.47
2023-12-11T13:52:26.315Z,64.00
2023-12-11T13:57:28.511Z,63.95
2023-12-11T14:02:59.002Z,64.80
2023-12-11T14:07:53.400Z,65.45
2023-12-11T14:12:55.297Z,65.19
2023-12-11T14:17:57.870Z,65.23
2023-12-11T14:23:00.056Z,65.33
2023-12-11T14:28:04.984Z,64.77
2023-12-11T14:33:07.984Z,64.93
2023-12-11T14:38:09.804Z,65.48
2023-12-11T14:43:11.834Z,66.46
2023-12-11T14:48:13.963Z,66.25
2023-12-11T14:53:16.020Z,66.86
2023-12-11T14:58:18.765Z,67.30
2023-12-11T15:03:20.763Z,67.49
2023-12-11T15:08:22.783Z,67.27
2023-12-11T15:13:29.734Z,67.31
2023-12-11T15:18:51.001Z,67.80
2023-12-11T15:23:53.201Z,68.05
2023-12-11T15:28:55.099Z,68.38
2023-12-11T15:33:57.140Z,68.22
2023-12-11T15:38:59.412Z,68.59
2023-12-11T15:44:01.376Z,68.88
2023-12-11T15:49:04.152Z,69.21
2023-12-11T15:54:09.656Z,68.03
2023-12-11T15:59:11.534Z,68.25
2023-12-11T16:04:13.379Z,67.48
2023-12-11T16:09:18.588Z,67.30
2023-12-11T16:14:20.573Z,66.73
2023-12-11T16:19:22.590Z,66.00
2023-12-11T16:24:24.511Z,65.99
2023-12-11T16:29:26.406Z,65.88
2023-12-11T16:34:28.845Z,65.49
2023-12-11T16:39:30.894Z,65.46
2023-12-11T16:44:32.935Z,65.69
2023-12-11T16:49:44.525Z,65.92
2023-12-11T16:54:50.743Z,66.06
2023-12-11T16:59:52.629Z,66.38
2023-12-11T17:04:54.645Z,66.36
2023-12-11T17:09:59.163Z,66.27
2023-12-11T17:15:01.793Z,66.27
2023-12-11T17:20:05.081Z,66.27
2023-12-11T17:25:07.826Z,66.51
2023-12-11T17:30:12.402Z,66.08
2023-12-11T17:35:15.644Z,65.52
2023-12-11T17:40:18.454Z,64.75
2023-12-11T17:45:22.275Z,64.68
2023-12-11T17:50:26.811Z,65.10
2023-12-11T17:55:29.225Z,65.15
2023-12-11T18:00:31.258Z,65.89
2023-12-11T18:05:33.550Z,65.12
2023-12-11T18:10:35.633Z,65.17
2023-12-11T18:15:37.588Z,65.58
2023-12-11T18:20:40.011Z,65.41
2023-12-11T18:25:41.949Z,65.66
2023-12-11T18:30:43.978Z,66.39
2023-12-11T18:35:46.208Z,66.23
2023-12-11T18:40:49.390Z,65.56
2023-12-11T18:45:51.991Z,64.67
2023-12-11T18:50:54.906Z,64.89
2023-12-11T18:55:59.956Z,64.96
2023-12-11T19:01:02.668Z,64.60
2023-12-11T19:06:05.584Z,64.28
2023-12-11T19:11:09.286Z,64.07
2023-12-11T19:16:11.923Z,64.33
2023-12-11T19:21:16.466Z,63.94
2023-12-11T19:26:19.361Z,64.32
2023-12-11T19:31:21.991Z,64.92
2023-12-11T19:36:24.808Z,65.38
2023-12-11T19:41:27.174Z,65.49
2023-12-11T19:46:30.104Z,65.31
2023-12-11T19:51:32.277Z,65.30
2023-12-11T19:56:34.545Z,65.13
2023-12-11T20:07:51.528Z,66.00
2023-12-11T20:12:55.677Z,66.48
2023-12-11T20:18:00.051Z,65.95
2023-12-11T20:23:03.560Z,65.33
2023-12-11T20:28:07.289Z,64.65
2023-12-11T20:33:12.901Z,64.47
2023-12-11T20:38:18.951Z,63.88
2023-12-11T20:43:22.402Z,63.51
2023-12-11T20:48:25.901Z,63.60
2023-12-11T20:53:29.170Z,63.47
2023-12-11T20:58:32.541Z,62.74
2023-12-11T21:03:38.581Z,63.42
2023-12-11T21:08:44.147Z,63.42
2023-12-11T21:13:49.031Z,63.27
2023-12-11T21:18:52.319Z,63.61
2023-12-11T21:23:56.161Z,64.71
2023-12-11T21:29:00.675Z,64.51
2023-12-11T21:34:04.761Z,64.89
2023-12-11T21:39:08.159Z,66.46
2023-12-11T21:44:11.817Z,67.31
2023-12-11T21:49:19.218Z,68.19
2023-12-11T21:54:23.582Z,68.04
2023-12-11T21:59:35.355Z,67.44
2023-12-11T22:04:43.224Z,67.78
2023-12-11T22:09:55.948Z,67.21
2023-12-11T22:14:59.963Z,66.52
2023-12-11T22:20:04.660Z,68.05
2023-12-11T22:25:09.134Z,68.22
2023-12-11T22:30:13.336Z,68.37
2023-12-11T22:37:18.621Z,69.90
2023-12-11T22:42:22.184Z,70.42
2023-12-11T22:47:25.475Z,70.59
2023-12-11T22:52:29.033Z,71.68
2023-12-11T22:57:32.829Z,71.34
2023-12-11T23:02:36.412Z,71.21
2023-12-11T23:07:39.798Z,70.87
2023-12-11T23:12:43.392Z,71.62
2023-12-11T23:17:46.822Z,71.78
2023-12-11T23:22:50.272Z,71.81
2023-12-11T23:27:53.675Z,73.17
2023-12-11T23:32:57.123Z,73.41
2023-12-11T23:38:00.914Z,73.51
2023-12-11T23:43:04.405Z,74.06
2023-12-11T23:48:07.812Z,74.57
2023-12-11T23:53:11.210Z,75.00
2023-12-11T23:58:14.487Z,74.98
